Airfield :
LOGIN :

Register | Disclaimer

   EN    FR    IT 

 










Legend :    VFR   Marginal VFR   IFR   Intensive IFR   Very Intensive IFR
Visi :
Ceiling :
>= 8 km
>= 3000ft
5 to 8 km
1000 to 3000 ft
1500m to 5 km
500 to 1000 ft
800 to 1500m
200 to 500 ft
< 800m
< 200 ft
Symbols :   Thunderstorms  Fog  Heavy snow  Heavy precipitations  Wind > 20 kt
SIGMETs :     Misc.  Thunderstorms  Icing  Turbulence  Mountain Waves  Volcanic Ashes






- Airport Elevation : 299 ft
- IATA code : EDM


LFRI - La Roche Sur Yon - Les Ajoncs

CURRENT METAR :
  • 100500Z AUTO 21010KT 9999 FEW024 11/09 Q1004

EXPIRED METARs :
  • 100430Z AUTO 21007KT 9999 BKN023 BKN029 11/09 Q1004
  • 100400Z AUTO 21009KT 9999 SCT023 11/09 Q1004
  • 100330Z AUTO 21009KT 9999 FEW020/// SCT040/// BKN066/// ///TCU 11/10 Q1004
  • 100300Z AUTO 21009KT 9999 BKN021/// BKN060/// ///TCU 11/10 Q1004
  • 100230Z AUTO 21010KT 9999 SCT020/// BKN027/// BKN035/// ///CB 11/10 Q1004

TAF AMD TAF LFRI
Valid from the 09 at 18:00 until the 10 at 18:00 UTC


091828Z 0918/1018 28012KT 9999 BKN025
TEMPO 0918/0922 VRB20G40KT 2500 TSRA BKN009 BKN020CB
PROB30
TEMPO 0918/0922 TSGR
BECMG 0922/0924 22010KT
TEMPO 0922/1015 4000 -SHRA SCT010 BKN030CB
TEMPO 1008/1012 23015G25KT



MET'MAP, your aeronautical weather chart ! - Copyright ORBIFLY December 2007 - Disclaimer

ORBIFLY MET'MAP TEAM :

Programming & Development : Alexandra Zaïnal
Concept & original design : Baudouin d'Aumeries
Assistance for programming : Marc-Olivier Méhu
Technical & hardware support : Manuel Goepfert

Contact : metmap@orbifly.com




SOURCES & CREDITS :

   NOAA